sensor_id;sensor_type;location;lat;lon;timestamp;P1;durP1;ratioP1;P2;durP2;ratioP2
70970;SDS011;58632;51.718;19.446;2023-05-29T00:00:21;12.30;;;6.40;;
70970;SDS011;58632;51.718;19.446;2023-05-29T00:03:07;14.00;;;6.10;;
70970;SDS011;58632;51.718;19.446;2023-05-29T00:05:34;10.70;;;5.90;;
70970;SDS011;58632;51.718;19.446;2023-05-29T00:08:01;14.30;;;6.50;;
70970;SDS011;58632;51.718;19.446;2023-05-29T00:10:26;10.60;;;6.20;;
70970;SDS011;58632;51.718;19.446;2023-05-29T00:12:52;11.80;;;5.80;;
70970;SDS011;58632;51.718;19.446;2023-05-29T00:15:18;12.60;;;5.90;;
70970;SDS011;58632;51.718;19.446;2023-05-29T00:17:43;10.90;;;5.30;;
70970;SDS011;58632;51.718;19.446;2023-05-29T00:20:09;12.00;;;5.80;;
70970;SDS011;58632;51.718;19.446;2023-05-29T00:22:36;10.20;;;5.80;;
70970;SDS011;58632;51.718;19.446;2023-05-29T00:25:06;12.20;;;6.00;;
70970;SDS011;58632;51.718;19.446;2023-05-29T00:27:34;11.50;;;6.10;;
70970;SDS011;58632;51.718;19.446;2023-05-29T00:30:01;9.30;;;5.90;;
70970;SDS011;58632;51.718;19.446;2023-05-29T00:32:28;11.10;;;6.30;;
70970;SDS011;58632;51.718;19.446;2023-05-29T00:34:54;13.90;;;5.70;;
70970;SDS011;58632;51.718;19.446;2023-05-29T00:37:20;9.00;;;5.20;;
70970;SDS011;58632;51.718;19.446;2023-05-29T00:39:48;12.50;;;5.00;;
70970;SDS011;58632;51.718;19.446;2023-05-29T00:42:14;9.70;;;5.20;;
70970;SDS011;58632;51.718;19.446;2023-05-29T00:44:40;9.40;;;5.50;;
70970;SDS011;58632;51.718;19.446;2023-05-29T00:47:05;13.10;;;6.00;;
70970;SDS011;58632;51.718;19.446;2023-05-29T00:49:32;10.10;;;5.30;;
70970;SDS011;58632;51.718;19.446;2023-05-29T00:52:00;12.00;;;5.70;;
70970;SDS011;58632;51.718;19.446;2023-05-29T00:54:28;10.40;;;5.80;;
70970;SDS011;58632;51.718;19.446;2023-05-29T00:56:58;12.80;;;5.60;;
70970;SDS011;58632;51.718;19.446;2023-05-29T00:59:26;10.30;;;5.10;;
70970;SDS011;58632;51.718;19.446;2023-05-29T01:01:54;10.50;;;5.00;;
70970;SDS011;58632;51.718;19.446;2023-05-29T01:04:23;8.30;;;5.00;;
70970;SDS011;58632;51.718;19.446;2023-05-29T01:06:51;10.30;;;5.30;;
70970;SDS011;58632;51.718;19.446;2023-05-29T01:09:17;10.40;;;5.40;;
70970;SDS011;58632;51.718;19.446;2023-05-29T01:17:05;11.30;;;4.80;;
70970;SDS011;58632;51.718;19.446;2023-05-29T01:22:58;8.40;;;4.80;;
70970;SDS011;58632;51.718;19.446;2023-05-29T01:28:20;11.00;;;5.30;;
70970;SDS011;58632;51.718;19.446;2023-05-29T01:30:49;9.60;;;4.90;;
70970;SDS011;58632;51.718;19.446;2023-05-29T01:33:16;9.80;;;5.10;;
70970;SDS011;58632;51.718;19.446;2023-05-29T01:35:42;9.90;;;5.30;;
70970;SDS011;58632;51.718;19.446;2023-05-29T01:38:08;9.50;;;4.90;;
70970;SDS011;58632;51.718;19.446;2023-05-29T01:40:33;10.50;;;4.80;;
70970;SDS011;58632;51.718;19.446;2023-05-29T01:42:59;10.60;;;4.90;;
70970;SDS011;58632;51.718;19.446;2023-05-29T01:45:25;10.30;;;5.50;;
70970;SDS011;58632;51.718;19.446;2023-05-29T01:47:53;8.90;;;5.10;;
70970;SDS011;58632;51.718;19.446;2023-05-29T01:50:19;10.00;;;5.10;;
70970;SDS011;58632;51.718;19.446;2023-05-29T01:52:47;12.10;;;5.30;;
70970;SDS011;58632;51.718;19.446;2023-05-29T01:55:12;9.00;;;5.50;;
70970;SDS011;58632;51.718;19.446;2023-05-29T01:57:38;9.80;;;4.90;;
70970;SDS011;58632;51.718;19.446;2023-05-29T02:00:05;11.30;;;6.70;;
70970;SDS011;58632;51.718;19.446;2023-05-29T02:02:37;9.90;;;5.00;;
70970;SDS011;58632;51.718;19.446;2023-05-29T02:05:04;9.60;;;5.00;;
70970;SDS011;58632;51.718;19.446;2023-05-29T02:07:30;10.80;;;4.90;;
70970;SDS011;58632;51.718;19.446;2023-05-29T02:09:58;11.70;;;6.50;;
70970;SDS011;58632;51.718;19.446;2023-05-29T02:12:24;8.80;;;5.40;;
70970;SDS011;58632;51.718;19.446;2023-05-29T02:14:49;9.50;;;4.90;;
70970;SDS011;58632;51.718;19.446;2023-05-29T02:17:15;10.00;;;4.90;;
70970;SDS011;58632;51.718;19.446;2023-05-29T02:19:41;8.90;;;5.00;;
70970;SDS011;58632;51.718;19.446;2023-05-29T02:22:07;8.30;;;5.20;;
70970;SDS011;58632;51.718;19.446;2023-05-29T02:24:33;8.30;;;5.10;;
70970;SDS011;58632;51.718;19.446;2023-05-29T02:26:58;13.20;;;5.60;;
70970;SDS011;58632;51.718;19.446;2023-05-29T02:29:24;11.50;;;5.00;;
70970;SDS011;58632;51.718;19.446;2023-05-29T02:31:50;9.50;;;5.30;;
70970;SDS011;58632;51.718;19.446;2023-05-29T02:34:15;10.20;;;4.90;;
70970;SDS011;58632;51.718;19.446;2023-05-29T02:36:41;13.00;;;4.90;;
70970;SDS011;58632;51.718;19.446;2023-05-29T02:39:07;10.50;;;4.90;;
70970;SDS011;58632;51.718;19.446;2023-05-29T02:41:32;9.70;;;4.60;;
70970;SDS011;58632;51.718;19.446;2023-05-29T02:43:58;7.80;;;5.00;;
70970;SDS011;58632;51.718;19.446;2023-05-29T02:46:23;12.00;;;4.90;;
70970;SDS011;58632;51.718;19.446;2023-05-29T02:48:49;10.70;;;5.20;;
70970;SDS011;58632;51.718;19.446;2023-05-29T02:51:14;8.50;;;5.10;;
70970;SDS011;58632;51.718;19.446;2023-05-29T02:53:40;10.30;;;5.20;;
70970;SDS011;58632;51.718;19.446;2023-05-29T02:56:06;8.90;;;4.70;;
70970;SDS011;58632;51.718;19.446;2023-05-29T02:58:34;8.40;;;5.30;;
70970;SDS011;58632;51.718;19.446;2023-05-29T03:03:29;9.80;;;4.70;;
70970;SDS011;58632;51.718;19.446;2023-05-29T03:05:54;9.50;;;4.60;;
70970;SDS011;58632;51.718;19.446;2023-05-29T03:08:20;10.60;;;6.70;;
70970;SDS011;58632;51.718;19.446;2023-05-29T03:10:46;8.80;;;5.00;;
70970;SDS011;58632;51.718;19.446;2023-05-29T03:13:12;11.80;;;5.40;;
70970;SDS011;58632;51.718;19.446;2023-05-29T03:15:38;11.80;;;4.80;;
70970;SDS011;58632;51.718;19.446;2023-05-29T03:18:04;10.40;;;4.70;;
70970;SDS011;58632;51.718;19.446;2023-05-29T03:20:29;7.40;;;5.00;;
70970;SDS011;58632;51.718;19.446;2023-05-29T03:22:55;11.60;;;4.90;;
70970;SDS011;58632;51.718;19.446;2023-05-29T03:25:21;13.30;;;5.40;;
70970;SDS011;58632;51.718;19.446;2023-05-29T03:27:49;13.90;;;5.00;;
70970;SDS011;58632;51.718;19.446;2023-05-29T03:30:15;11.20;;;5.30;;
70970;SDS011;58632;51.718;19.446;2023-05-29T03:32:41;12.40;;;5.60;;
70970;SDS011;58632;51.718;19.446;2023-05-29T03:35:06;13.20;;;6.30;;
70970;SDS011;58632;51.718;19.446;2023-05-29T03:37:32;12.30;;;5.80;;
70970;SDS011;58632;51.718;19.446;2023-05-29T03:39:58;9.30;;;4.80;;
70970;SDS011;58632;51.718;19.446;2023-05-29T03:42:23;17.40;;;5.50;;
70970;SDS011;58632;51.718;19.446;2023-05-29T03:44:49;17.60;;;5.50;;
70970;SDS011;58632;51.718;19.446;2023-05-29T03:47:14;23.80;;;5.90;;
70970;SDS011;58632;51.718;19.446;2023-05-29T03:49:40;28.40;;;6.60;;
70970;SDS011;58632;51.718;19.446;2023-05-29T03:52:05;30.20;;;6.40;;
70970;SDS011;58632;51.718;19.446;2023-05-29T03:54:32;26.60;;;5.80;;
70970;SDS011;58632;51.718;19.446;2023-05-29T03:56:57;19.90;;;5.70;;
70970;SDS011;58632;51.718;19.446;2023-05-29T03:59:23;18.30;;;6.60;;
70970;SDS011;58632;51.718;19.446;2023-05-29T04:01:48;13.30;;;5.30;;
70970;SDS011;58632;51.718;19.446;2023-05-29T04:04:14;9.90;;;5.20;;
70970;SDS011;58632;51.718;19.446;2023-05-29T04:06:40;10.20;;;4.70;;
70970;SDS011;58632;51.718;19.446;2023-05-29T04:09:06;15.50;;;4.70;;
70970;SDS011;58632;51.718;19.446;2023-05-29T04:11:32;9.40;;;5.10;;
70970;SDS011;58632;51.718;19.446;2023-05-29T04:14:01;20.00;;;5.00;;
70970;SDS011;58632;51.718;19.446;2023-05-29T04:16:27;12.50;;;5.00;;
70970;SDS011;58632;51.718;19.446;2023-05-29T04:18:54;13.50;;;5.30;;
70970;SDS011;58632;51.718;19.446;2023-05-29T04:21:20;9.50;;;5.20;;
70970;SDS011;58632;51.718;19.446;2023-05-29T04:23:46;15.20;;;5.10;;
70970;SDS011;58632;51.718;19.446;2023-05-29T04:26:11;17.50;;;5.80;;
70970;SDS011;58632;51.718;19.446;2023-05-29T04:28:38;14.40;;;4.90;;
70970;SDS011;58632;51.718;19.446;2023-05-29T04:31:04;13.70;;;5.60;;
70970;SDS011;58632;51.718;19.446;2023-05-29T04:33:30;16.30;;;4.90;;
70970;SDS011;58632;51.718;19.446;2023-05-29T04:35:58;13.60;;;4.70;;
70970;SDS011;58632;51.718;19.446;2023-05-29T04:38:26;21.80;;;5.10;;
70970;SDS011;58632;51.718;19.446;2023-05-29T04:40:52;21.10;;;5.50;;
70970;SDS011;58632;51.718;19.446;2023-05-29T04:43:22;32.10;;;5.80;;
70970;SDS011;58632;51.718;19.446;2023-05-29T04:45:51;24.90;;;5.50;;
70970;SDS011;58632;51.718;19.446;2023-05-29T04:48:18;26.80;;;5.50;;
70970;SDS011;58632;51.718;19.446;2023-05-29T04:50:43;25.20;;;6.10;;
70970;SDS011;58632;51.718;19.446;2023-05-29T04:53:09;31.50;;;6.10;;
70970;SDS011;58632;51.718;19.446;2023-05-29T04:55:35;29.90;;;5.60;;
70970;SDS011;58632;51.718;19.446;2023-05-29T04:58:01;16.10;;;5.10;;
70970;SDS011;58632;51.718;19.446;2023-05-29T05:00:27;23.00;;;5.70;;
70970;SDS011;58632;51.718;19.446;2023-05-29T05:02:53;18.70;;;5.10;;
70970;SDS011;58632;51.718;19.446;2023-05-29T05:05:18;18.10;;;5.10;;
70970;SDS011;58632;51.718;19.446;2023-05-29T05:07:44;17.40;;;5.10;;
70970;SDS011;58632;51.718;19.446;2023-05-29T05:10:12;15.30;;;5.00;;
70970;SDS011;58632;51.718;19.446;2023-05-29T05:12:38;24.90;;;5.30;;
70970;SDS011;58632;51.718;19.446;2023-05-29T05:15:04;22.20;;;5.20;;
70970;SDS011;58632;51.718;19.446;2023-05-29T05:17:30;26.00;;;4.80;;
70970;SDS011;58632;51.718;19.446;2023-05-29T05:19:55;26.20;;;5.00;;
70970;SDS011;58632;51.718;19.446;2023-05-29T05:22:21;25.80;;;5.20;;
70970;SDS011;58632;51.718;19.446;2023-05-29T05:24:46;9.40;;;4.00;;
70970;SDS011;58632;51.718;19.446;2023-05-29T05:27:12;9.80;;;4.00;;
70970;SDS011;58632;51.718;19.446;2023-05-29T05:29:38;12.10;;;4.10;;
70970;SDS011;58632;51.718;19.446;2023-05-29T05:32:04;9.20;;;4.10;;
70970;SDS011;58632;51.718;19.446;2023-05-29T05:34:30;12.40;;;3.70;;
70970;SDS011;58632;51.718;19.446;2023-05-29T05:36:55;15.20;;;4.40;;
70970;SDS011;58632;51.718;19.446;2023-05-29T05:39:21;16.80;;;3.80;;
70970;SDS011;58632;51.718;19.446;2023-05-29T05:41:47;9.20;;;4.00;;
70970;SDS011;58632;51.718;19.446;2023-05-29T05:44:13;16.30;;;4.20;;
70970;SDS011;58632;51.718;19.446;2023-05-29T05:49:03;16.60;;;4.10;;
70970;SDS011;58632;51.718;19.446;2023-05-29T05:53:55;11.90;;;3.20;;
70970;SDS011;58632;51.718;19.446;2023-05-29T05:56:21;17.70;;;3.40;;
70970;SDS011;58632;51.718;19.446;2023-05-29T05:58:47;11.40;;;3.00;;
70970;SDS011;58632;51.718;19.446;2023-05-29T06:01:13;8.80;;;3.20;;
70970;SDS011;58632;51.718;19.446;2023-05-29T06:03:39;9.50;;;2.80;;
70970;SDS011;58632;51.718;19.446;2023-05-29T06:06:05;12.30;;;2.90;;
70970;SDS011;58632;51.718;19.446;2023-05-29T06:08:31;9.60;;;3.00;;
70970;SDS011;58632;51.718;19.446;2023-05-29T06:13:22;8.50;;;3.00;;
70970;SDS011;58632;51.718;19.446;2023-05-29T06:15:48;11.00;;;2.90;;
70970;SDS011;58632;51.718;19.446;2023-05-29T06:20:38;9.60;;;3.00;;
70970;SDS011;58632;51.718;19.446;2023-05-29T06:23:04;9.30;;;2.90;;
70970;SDS011;58632;51.718;19.446;2023-05-29T06:25:31;10.70;;;2.70;;
70970;SDS011;58632;51.718;19.446;2023-05-29T06:27:59;8.60;;;2.50;;
70970;SDS011;58632;51.718;19.446;2023-05-29T06:30:25;7.50;;;2.40;;
70970;SDS011;58632;51.718;19.446;2023-05-29T06:32:51;7.10;;;2.00;;
70970;SDS011;58632;51.718;19.446;2023-05-29T06:37:42;6.40;;;2.20;;
70970;SDS011;58632;51.718;19.446;2023-05-29T06:40:08;6.40;;;2.00;;
70970;SDS011;58632;51.718;19.446;2023-05-29T06:42:34;7.30;;;2.00;;
70970;SDS011;58632;51.718;19.446;2023-05-29T06:44:59;5.00;;;1.80;;
70970;SDS011;58632;51.718;19.446;2023-05-29T06:47:25;7.70;;;1.90;;
70970;SDS011;58632;51.718;19.446;2023-05-29T06:49:51;5.80;;;1.80;;
70970;SDS011;58632;51.718;19.446;2023-05-29T06:52:16;8.00;;;1.70;;
70970;SDS011;58632;51.718;19.446;2023-05-29T06:54:42;5.90;;;1.70;;
70970;SDS011;58632;51.718;19.446;2023-05-29T06:57:10;7.40;;;2.30;;
70970;SDS011;58632;51.718;19.446;2023-05-29T06:59:35;8.20;;;1.90;;
70970;SDS011;58632;51.718;19.446;2023-05-29T07:02:01;5.20;;;1.90;;
70970;SDS011;58632;51.718;19.446;2023-05-29T07:04:26;5.70;;;2.30;;
70970;SDS011;58632;51.718;19.446;2023-05-29T07:06:52;7.70;;;1.70;;
70970;SDS011;58632;51.718;19.446;2023-05-29T07:09:17;4.00;;;1.80;;
70970;SDS011;58632;51.718;19.446;2023-05-29T07:11:43;6.20;;;1.90;;
70970;SDS011;58632;51.718;19.446;2023-05-29T07:14:09;6.40;;;1.80;;
70970;SDS011;58632;51.718;19.446;2023-05-29T07:16:34;8.80;;;1.90;;
70970;SDS011;58632;51.718;19.446;2023-05-29T07:19:00;7.90;;;2.00;;
70970;SDS011;58632;51.718;19.446;2023-05-29T07:21:25;8.60;;;2.00;;
70970;SDS011;58632;51.718;19.446;2023-05-29T07:23:51;8.90;;;1.60;;
70970;SDS011;58632;51.718;19.446;2023-05-29T07:26:16;4.10;;;1.70;;
70970;SDS011;58632;51.718;19.446;2023-05-29T07:28:42;6.40;;;1.70;;
70970;SDS011;58632;51.718;19.446;2023-05-29T07:31:10;5.50;;;1.60;;
70970;SDS011;58632;51.718;19.446;2023-05-29T07:33:39;4.20;;;1.90;;
70970;SDS011;58632;51.718;19.446;2023-05-29T07:36:07;8.20;;;2.70;;
70970;SDS011;58632;51.718;19.446;2023-05-29T07:38:32;7.80;;;2.40;;
70970;SDS011;58632;51.718;19.446;2023-05-29T07:40:58;5.90;;;1.70;;
70970;SDS011;58632;51.718;19.446;2023-05-29T07:43:24;8.00;;;1.90;;
70970;SDS011;58632;51.718;19.446;2023-05-29T07:45:49;5.20;;;1.90;;
70970;SDS011;58632;51.718;19.446;2023-05-29T07:48:15;5.90;;;2.20;;
70970;SDS011;58632;51.718;19.446;2023-05-29T07:50:40;6.50;;;1.90;;
70970;SDS011;58632;51.718;19.446;2023-05-29T07:53:06;6.90;;;1.90;;
70970;SDS011;58632;51.718;19.446;2023-05-29T07:57:59;8.70;;;2.60;;
70970;SDS011;58632;51.718;19.446;2023-05-29T08:00:24;5.30;;;2.20;;
70970;SDS011;58632;51.718;19.446;2023-05-29T08:02:51;9.70;;;1.90;;
70970;SDS011;58632;51.718;19.446;2023-05-29T08:05:17;12.10;;;2.10;;
70970;SDS011;58632;51.718;19.446;2023-05-29T08:07:42;10.20;;;2.10;;
70970;SDS011;58632;51.718;19.446;2023-05-29T08:10:09;9.70;;;2.10;;
70970;SDS011;58632;51.718;19.446;2023-05-29T08:12:35;8.00;;;2.10;;
70970;SDS011;58632;51.718;19.446;2023-05-29T08:15:01;5.70;;;2.00;;
70970;SDS011;58632;51.718;19.446;2023-05-29T08:17:27;6.60;;;1.80;;
70970;SDS011;58632;51.718;19.446;2023-05-29T08:19:53;7.40;;;2.10;;
70970;SDS011;58632;51.718;19.446;2023-05-29T08:22:18;8.60;;;2.00;;
70970;SDS011;58632;51.718;19.446;2023-05-29T08:24:44;9.60;;;1.70;;
70970;SDS011;58632;51.718;19.446;2023-05-29T08:27:09;5.30;;;1.60;;
70970;SDS011;58632;51.718;19.446;2023-05-29T08:29:35;9.40;;;1.80;;
70970;SDS011;58632;51.718;19.446;2023-05-29T08:32:01;5.70;;;2.00;;
70970;SDS011;58632;51.718;19.446;2023-05-29T08:34:27;7.40;;;1.80;;
70970;SDS011;58632;51.718;19.446;2023-05-29T08:36:53;6.20;;;1.90;;
70970;SDS011;58632;51.718;19.446;2023-05-29T08:39:20;6.20;;;1.80;;
70970;SDS011;58632;51.718;19.446;2023-05-29T08:44:35;4.60;;;1.80;;
70970;SDS011;58632;51.718;19.446;2023-05-29T08:47:04;8.10;;;1.80;;
70970;SDS011;58632;51.718;19.446;2023-05-29T08:49:40;9.20;;;2.00;;
70970;SDS011;58632;51.718;19.446;2023-05-29T08:52:16;6.80;;;1.80;;
70970;SDS011;58632;51.718;19.446;2023-05-29T08:54:44;6.70;;;1.70;;
70970;SDS011;58632;51.718;19.446;2023-05-29T08:59:42;6.20;;;1.70;;
70970;SDS011;58632;51.718;19.446;2023-05-29T09:02:09;4.90;;;1.80;;
70970;SDS011;58632;51.718;19.446;2023-05-29T09:04:36;5.10;;;1.60;;
70970;SDS011;58632;51.718;19.446;2023-05-29T09:07:02;6.50;;;1.90;;
70970;SDS011;58632;51.718;19.446;2023-05-29T09:11:54;7.60;;;2.10;;
70970;SDS011;58632;51.718;19.446;2023-05-29T09:14:34;4.80;;;1.80;;
70970;SDS011;58632;51.718;19.446;2023-05-29T09:17:06;6.70;;;1.80;;
70970;SDS011;58632;51.718;19.446;2023-05-29T09:19:32;7.00;;;1.80;;
70970;SDS011;58632;51.718;19.446;2023-05-29T09:22:02;8.90;;;2.10;;
70970;SDS011;58632;51.718;19.446;2023-05-29T09:24:29;5.40;;;1.90;;
70970;SDS011;58632;51.718;19.446;2023-05-29T09:26:58;8.30;;;2.20;;
70970;SDS011;58632;51.718;19.446;2023-05-29T09:29:24;5.80;;;1.90;;
70970;SDS011;58632;51.718;19.446;2023-05-29T09:31:50;4.60;;;1.90;;
70970;SDS011;58632;51.718;19.446;2023-05-29T09:36:41;6.30;;;2.10;;
70970;SDS011;58632;51.718;19.446;2023-05-29T09:39:08;6.40;;;1.80;;
70970;SDS011;58632;51.718;19.446;2023-05-29T09:41:42;4.20;;;2.00;;
70970;SDS011;58632;51.718;19.446;2023-05-29T09:44:10;6.30;;;1.80;;
70970;SDS011;58632;51.718;19.446;2023-05-29T09:46:38;5.90;;;1.90;;
70970;SDS011;58632;51.718;19.446;2023-05-29T09:49:23;5.20;;;1.70;;
70970;SDS011;58632;51.718;19.446;2023-05-29T09:51:48;6.80;;;2.00;;
70970;SDS011;58632;51.718;19.446;2023-05-29T09:54:19;10.40;;;2.10;;
70970;SDS011;58632;51.718;19.446;2023-05-29T09:59:12;5.40;;;2.00;;
70970;SDS011;58632;51.718;19.446;2023-05-29T10:01:42;6.90;;;2.00;;
70970;SDS011;58632;51.718;19.446;2023-05-29T10:04:12;5.00;;;1.80;;
70970;SDS011;58632;51.718;19.446;2023-05-29T10:06:43;7.50;;;2.00;;
70970;SDS011;58632;51.718;19.446;2023-05-29T10:09:12;8.20;;;1.90;;
70970;SDS011;58632;51.718;19.446;2023-05-29T10:11:43;7.80;;;2.40;;
70970;SDS011;58632;51.718;19.446;2023-05-29T10:14:14;6.00;;;2.10;;
70970;SDS011;58632;51.718;19.446;2023-05-29T10:16:43;5.90;;;1.60;;
70970;SDS011;58632;51.718;19.446;2023-05-29T10:19:12;9.20;;;2.20;;
70970;SDS011;58632;51.718;19.446;2023-05-29T10:21:41;3.40;;;1.70;;
70970;SDS011;58632;51.718;19.446;2023-05-29T10:24:09;5.20;;;1.70;;
70970;SDS011;58632;51.718;19.446;2023-05-29T10:26:37;3.70;;;1.70;;
70970;SDS011;58632;51.718;19.446;2023-05-29T10:29:23;5.20;;;1.80;;
70970;SDS011;58632;51.718;19.446;2023-05-29T10:40:13;7.50;;;1.90;;
70970;SDS011;58632;51.718;19.446;2023-05-29T10:42:40;7.60;;;2.00;;
70970;SDS011;58632;51.718;19.446;2023-05-29T10:45:08;4.90;;;2.00;;
70970;SDS011;58632;51.718;19.446;2023-05-29T10:50:00;4.70;;;2.00;;
70970;SDS011;58632;51.718;19.446;2023-05-29T10:52:26;9.00;;;2.00;;
70970;SDS011;58632;51.718;19.446;2023-05-29T10:54:56;6.60;;;1.70;;
70970;SDS011;58632;51.718;19.446;2023-05-29T10:57:22;5.50;;;1.80;;
70970;SDS011;58632;51.718;19.446;2023-05-29T10:59:56;8.60;;;2.20;;
70970;SDS011;58632;51.718;19.446;2023-05-29T11:02:25;5.20;;;1.70;;
70970;SDS011;58632;51.718;19.446;2023-05-29T11:05:04;10.50;;;2.40;;
70970;SDS011;58632;51.718;19.446;2023-05-29T11:07:52;5.20;;;2.20;;
70970;SDS011;58632;51.718;19.446;2023-05-29T11:13:09;6.30;;;1.80;;
70970;SDS011;58632;51.718;19.446;2023-05-29T11:15:37;4.60;;;1.90;;
70970;SDS011;58632;51.718;19.446;2023-05-29T11:18:06;6.30;;;1.70;;
70970;SDS011;58632;51.718;19.446;2023-05-29T11:25:23;9.20;;;1.90;;
70970;SDS011;58632;51.718;19.446;2023-05-29T11:30:18;6.40;;;2.00;;
70970;SDS011;58632;51.718;19.446;2023-05-29T11:32:45;8.70;;;2.20;;
70970;SDS011;58632;51.718;19.446;2023-05-29T11:35:14;3.20;;;1.90;;
70970;SDS011;58632;51.718;19.446;2023-05-29T11:37:42;5.10;;;2.10;;
70970;SDS011;58632;51.718;19.446;2023-05-29T11:40:11;5.70;;;2.50;;
70970;SDS011;58632;51.718;19.446;2023-05-29T11:42:44;6.40;;;2.10;;
70970;SDS011;58632;51.718;19.446;2023-05-29T11:45:18;5.80;;;1.90;;
70970;SDS011;58632;51.718;19.446;2023-05-29T11:47:55;5.40;;;2.00;;
70970;SDS011;58632;51.718;19.446;2023-05-29T11:50:24;5.90;;;2.00;;
70970;SDS011;58632;51.718;19.446;2023-05-29T11:52:55;5.10;;;2.10;;
70970;SDS011;58632;51.718;19.446;2023-05-29T11:55:22;9.10;;;2.30;;
70970;SDS011;58632;51.718;19.446;2023-05-29T11:57:48;5.90;;;1.80;;
70970;SDS011;58632;51.718;19.446;2023-05-29T12:00:15;5.40;;;2.10;;
70970;SDS011;58632;51.718;19.446;2023-05-29T12:02:42;8.70;;;2.10;;
70970;SDS011;58632;51.718;19.446;2023-05-29T12:05:08;8.00;;;1.80;;
70970;SDS011;58632;51.718;19.446;2023-05-29T12:07:38;4.60;;;2.00;;
70970;SDS011;58632;51.718;19.446;2023-05-29T12:10:13;6.00;;;2.10;;
70970;SDS011;58632;51.718;19.446;2023-05-29T12:12:40;5.50;;;1.60;;
70970;SDS011;58632;51.718;19.446;2023-05-29T12:17:32;6.50;;;1.90;;
70970;SDS011;58632;51.718;19.446;2023-05-29T12:19:58;4.50;;;1.60;;
70970;SDS011;58632;51.718;19.446;2023-05-29T12:22:33;3.50;;;1.60;;
70970;SDS011;58632;51.718;19.446;2023-05-29T12:27:44;6.80;;;1.80;;
70970;SDS011;58632;51.718;19.446;2023-05-29T12:30:12;5.60;;;1.80;;
70970;SDS011;58632;51.718;19.446;2023-05-29T12:32:44;4.60;;;2.00;;
70970;SDS011;58632;51.718;19.446;2023-05-29T12:37:56;5.60;;;1.80;;
70970;SDS011;58632;51.718;19.446;2023-05-29T12:40:33;6.00;;;1.80;;
70970;SDS011;58632;51.718;19.446;2023-05-29T12:43:00;5.80;;;1.70;;
70970;SDS011;58632;51.718;19.446;2023-05-29T12:45:32;6.50;;;2.00;;
70970;SDS011;58632;51.718;19.446;2023-05-29T12:47:59;4.80;;;1.70;;
70970;SDS011;58632;51.718;19.446;2023-05-29T12:50:27;4.10;;;1.80;;
70970;SDS011;58632;51.718;19.446;2023-05-29T12:52:57;6.60;;;1.80;;
70970;SDS011;58632;51.718;19.446;2023-05-29T12:55:36;7.00;;;2.10;;
70970;SDS011;58632;51.718;19.446;2023-05-29T12:58:09;6.10;;;2.00;;
70970;SDS011;58632;51.718;19.446;2023-05-29T13:00:36;4.90;;;1.80;;
70970;SDS011;58632;51.718;19.446;2023-05-29T13:03:03;4.40;;;1.90;;
70970;SDS011;58632;51.718;19.446;2023-05-29T13:05:29;3.60;;;1.80;;
70970;SDS011;58632;51.718;19.446;2023-05-29T13:07:55;4.30;;;1.80;;
70970;SDS011;58632;51.718;19.446;2023-05-29T13:10:22;7.00;;;1.90;;
70970;SDS011;58632;51.718;19.446;2023-05-29T13:12:51;5.00;;;1.80;;
70970;SDS011;58632;51.718;19.446;2023-05-29T13:15:21;5.90;;;1.80;;
70970;SDS011;58632;51.718;19.446;2023-05-29T13:17:47;5.80;;;2.00;;
70970;SDS011;58632;51.718;19.446;2023-05-29T13:22:40;7.60;;;2.10;;
70970;SDS011;58632;51.718;19.446;2023-05-29T13:25:07;7.30;;;1.90;;
70970;SDS011;58632;51.718;19.446;2023-05-29T13:27:35;8.50;;;2.00;;
70970;SDS011;58632;51.718;19.446;2023-05-29T13:30:01;6.00;;;2.10;;
70970;SDS011;58632;51.718;19.446;2023-05-29T13:32:28;6.90;;;2.00;;
70970;SDS011;58632;51.718;19.446;2023-05-29T13:34:54;4.20;;;2.10;;
70970;SDS011;58632;51.718;19.446;2023-05-29T13:37:19;4.70;;;2.20;;
70970;SDS011;58632;51.718;19.446;2023-05-29T13:39:45;6.10;;;2.00;;
70970;SDS011;58632;51.718;19.446;2023-05-29T13:42:11;6.30;;;1.80;;
70970;SDS011;58632;51.718;19.446;2023-05-29T13:44:37;4.30;;;2.00;;
70970;SDS011;58632;51.718;19.446;2023-05-29T13:47:02;6.10;;;2.10;;
70970;SDS011;58632;51.718;19.446;2023-05-29T13:49:28;6.70;;;2.20;;
70970;SDS011;58632;51.718;19.446;2023-05-29T13:51:54;5.00;;;2.20;;
70970;SDS011;58632;51.718;19.446;2023-05-29T13:54:19;5.20;;;2.10;;
70970;SDS011;58632;51.718;19.446;2023-05-29T13:56:46;5.30;;;1.90;;
70970;SDS011;58632;51.718;19.446;2023-05-29T13:59:12;5.40;;;1.90;;
70970;SDS011;58632;51.718;19.446;2023-05-29T14:01:38;5.90;;;2.00;;
70970;SDS011;58632;51.718;19.446;2023-05-29T14:04:03;7.60;;;2.10;;
70970;SDS011;58632;51.718;19.446;2023-05-29T14:06:28;6.30;;;2.10;;
70970;SDS011;58632;51.718;19.446;2023-05-29T14:08:54;7.10;;;2.30;;
70970;SDS011;58632;51.718;19.446;2023-05-29T14:11:21;7.90;;;2.20;;
70970;SDS011;58632;51.718;19.446;2023-05-29T14:13:50;7.90;;;2.70;;
70970;SDS011;58632;51.718;19.446;2023-05-29T14:16:16;10.80;;;2.60;;
70970;SDS011;58632;51.718;19.446;2023-05-29T14:18:44;6.40;;;2.50;;
70970;SDS011;58632;51.718;19.446;2023-05-29T14:21:13;8.40;;;2.50;;
70970;SDS011;58632;51.718;19.446;2023-05-29T14:23:39;6.80;;;2.10;;
70970;SDS011;58632;51.718;19.446;2023-05-29T14:26:07;7.10;;;2.00;;
70970;SDS011;58632;51.718;19.446;2023-05-29T14:28:32;5.70;;;2.00;;
70970;SDS011;58632;51.718;19.446;2023-05-29T14:30:58;5.30;;;2.50;;
70970;SDS011;58632;51.718;19.446;2023-05-29T14:33:23;5.10;;;2.10;;
70970;SDS011;58632;51.718;19.446;2023-05-29T14:35:51;5.30;;;1.80;;
70970;SDS011;58632;51.718;19.446;2023-05-29T14:38:16;5.70;;;2.10;;
70970;SDS011;58632;51.718;19.446;2023-05-29T14:40:42;6.00;;;2.20;;
70970;SDS011;58632;51.718;19.446;2023-05-29T14:43:10;5.40;;;2.10;;
70970;SDS011;58632;51.718;19.446;2023-05-29T14:45:35;4.70;;;2.30;;
70970;SDS011;58632;51.718;19.446;2023-05-29T14:48:01;4.40;;;2.20;;
70970;SDS011;58632;51.718;19.446;2023-05-29T14:50:27;4.80;;;2.20;;
70970;SDS011;58632;51.718;19.446;2023-05-29T14:52:53;6.10;;;2.30;;
70970;SDS011;58632;51.718;19.446;2023-05-29T14:55:18;3.20;;;2.20;;
70970;SDS011;58632;51.718;19.446;2023-05-29T14:57:44;4.20;;;2.60;;
70970;SDS011;58632;51.718;19.446;2023-05-29T15:00:09;9.10;;;2.50;;
70970;SDS011;58632;51.718;19.446;2023-05-29T15:02:35;7.90;;;2.70;;
70970;SDS011;58632;51.718;19.446;2023-05-29T15:05:01;5.80;;;2.30;;
70970;SDS011;58632;51.718;19.446;2023-05-29T15:07:27;7.80;;;2.50;;
70970;SDS011;58632;51.718;19.446;2023-05-29T15:09:52;6.70;;;2.40;;
70970;SDS011;58632;51.718;19.446;2023-05-29T15:12:18;7.10;;;2.40;;
70970;SDS011;58632;51.718;19.446;2023-05-29T15:14:43;5.10;;;2.10;;
70970;SDS011;58632;51.718;19.446;2023-05-29T15:17:09;7.40;;;2.40;;
70970;SDS011;58632;51.718;19.446;2023-05-29T15:19:35;6.50;;;2.40;;
70970;SDS011;58632;51.718;19.446;2023-05-29T15:24:26;3.90;;;2.00;;
70970;SDS011;58632;51.718;19.446;2023-05-29T15:26:52;5.00;;;2.20;;
70970;SDS011;58632;51.718;19.446;2023-05-29T15:29:17;4.20;;;2.20;;
70970;SDS011;58632;51.718;19.446;2023-05-29T15:31:46;7.80;;;2.40;;
70970;SDS011;58632;51.718;19.446;2023-05-29T15:34:11;4.60;;;2.30;;
70970;SDS011;58632;51.718;19.446;2023-05-29T15:36:37;4.20;;;2.00;;
70970;SDS011;58632;51.718;19.446;2023-05-29T15:39:03;3.80;;;1.90;;
70970;SDS011;58632;51.718;19.446;2023-05-29T15:41:28;6.00;;;2.20;;
70970;SDS011;58632;51.718;19.446;2023-05-29T15:43:56;5.20;;;2.20;;